• Join FlightAware (Why Join?)
  • Login
  • US Flag 
02:59PM EDT


 

Airport Tracker/Info


-or-


 

Live Flight TrackerFlight Track Log ✈ ASQ4577 ✈ 23-May-2013 ✈ KMKE - KCLE

Flight Track Log - Related Links

Times and Time Zones

All times are in EDT time to prevent confusion due to time zone crossing. See the ASQ4577 flight status page for this flight to view local times or setup timezone preferences in your user account.

Time Position Orientation Groundspeed Altitude Reporting Facility
EDT Latitude Longitude Course Direction KTS MPH feet Rate Location/Type
05:12PM 42.9500 -87.8833 90° East 145 167 1,500  Level KMKE
05:13PM 42.9500 -87.8167 90° East 181 208 3,100 1,740 Climbing KMKE
05:13PM 42.9567 -87.7942 68° East 180 207 3,700 1,620 Climbing Chicago Center
05:14PM 42.9692 -87.7058 79° East 216 249 5,400 1,920 Climbing Chicago Center
05:15PM 42.8629 -87.5225 98° East  Level Estimated
05:15PM 42.9897 -87.6089 74° East 256 295 7,700  Level Chicago Center
05:16PM 42.9004 -87.4024 67° East  Level FlightAware Approximate
05:16PM 43.0089 -87.4925 77° East 268 308 10,200  Level Chicago Center
05:17PM 42.8707 -87.2784 90° East  Level Estimated
05:18PM 42.9986 -87.3797 97° East 307 353 11,500  Level Chicago Center
05:19PM 42.9861 -87.2689 99° East 329 379 12,500 960 Climbing Chicago Center
05:20PM 42.9731 -87.1344 98° East 356 410 13,500 1,020 Climbing Chicago Center
05:21PM 42.9547 -86.9656 98° East 375 432 14,700 960 Climbing Chicago Center
05:22PM 42.9383 -86.8197 99° East 388 447 15,600 900 Climbing Chicago Center
05:23PM 42.9225 -86.6703 98° East 397 457 16,600 960 Climbing Chicago Center
05:24PM 42.9061 -86.5203 98° East 402 463 17,600 840 Climbing Chicago Center
05:25PM 42.8881 -86.3692 99° East 406 467 18,400 900 Climbing Chicago Center
05:26PM 42.8675 -86.1853 99° East 413 475 19,500 960 Climbing Chicago Center
05:27PM 42.8494 -86.0297 99° East 422 486 20,500 960 Climbing Chicago Center
05:28PM 42.8311 -85.8736 99° East 425 489 21,500 960 Climbing Chicago Center
05:29PM 42.8122 -85.7139 99° East 431 496 22,500 960 Climbing Chicago Center
05:30PM 42.7892 -85.5206 99° East 434 499 23,600 1,020 Climbing Chicago Center
05:31PM 42.7606 -85.3586 103° East 441 507 24,600 660 Climbing Chicago Center
05:32PM 42.7297 -85.1992 105° East 439 505 25,000 180 Climbing Chicago Center
05:33PM 42.6981 -85.0303 104° East 458 527 25,000  Level Chicago Center
05:34PM 42.6647 -84.8597 105° East 468 539 25,000  Level Chicago Center
05:35PM 42.6228 -84.6497 105° East 479 551 25,000  Level Chicago Center
05:36PM 42.5889 -84.4750 105° East 481 554 25,000  Level Chicago Center
05:37PM 42.5547 -84.3033 105° East 473 544 25,000  Level Chicago Center
05:37PM 42.5433 -84.2556 108° East 472 543 25,000  Level Cleveland Center
05:38PM 42.5069 -84.0817 106° East 472 543 25,000 -300 Level Cleveland Center
05:39PM 42.4706 -83.9078 106° East 472 543 24,500 -540 Descending Cleveland Center
05:40PM 42.4339 -83.7258 105° East 472 543 24,000 -300 Descending Cleveland Center
05:41PM 42.3858 -83.5714 113° Southeast 458 527 24,000  Level Cleveland Center
05:42PM 42.2969 -83.4661 139° Southeast 421 484 24,000 -180 Level Cleveland Center
05:43PM 42.2036 -83.3556 139° Southeast 437 503 23,700 -660 Descending Cleveland Center
05:44PM 42.1225 -83.2622 140° Southeast 437 503 22,700 -1,440 Descending Cleveland Center
05:45PM 42.0333 -83.1553 138° Southeast 437 503 20,900 -1,740 Descending Cleveland Center
05:46PM 41.9992 -82.9972 106° East 425 489 19,300 -1,740 Descending Cleveland Center
05:47PM 41.9842 -82.8178 96° East 425 489 17,500 -1,920 Descending Cleveland Center
05:48PM 41.9683 -82.6608 98° East 425 489 15,500 -1,920 Descending Cleveland Center
05:49PM 41.9436 -82.5178 103° East 398 458 13,700 -1,860 Descending Cleveland Center
05:50PM 41.9300 -82.4644 109° East 393 452 12,900 -2,100 Descending Cleveland Center
05:50PM 41.9042 -82.3797 112° Southeast 402 463 11,600 -2,040 Descending Cleveland Center
05:51PM 41.8883 -82.3319 114° Southeast 373 429 10,900 -1,620 Descending Cleveland Center
05:51PM 41.8644 -82.2533 112° Southeast 384 442 10,000 -900 Descending Cleveland Center
05:52PM 41.8483 -82.2083 116° Southeast 366 421 10,000  Level Cleveland Center
05:52PM 41.8117 -82.1406 126° Southeast 365 420 10,000  Level Cleveland Center
05:53PM 41.7294 -82.0578 143° Southeast 360 414 10,000  Level Cleveland Center
05:54PM 41.7089 -82.0433 152° Southeast 368 423 10,000  Level Cleveland Center
05:54PM 41.6469 -81.9808 143° Southeast 365 420 10,000  Level Cleveland Center
05:55PM 41.6203 -81.9581 147° Southeast 363 418 10,000  Level Cleveland Center
05:55PM 41.5647 -81.9042 144° Southeast 365 420 10,000  Level Cleveland Center
05:56PM 41.5378 -81.8786 145° Southeast 337 388 10,000 -600 Level Cleveland Center
05:56PM 41.4986 -81.8361 141° Southeast 330 380 9,400 -1,140 Descending Cleveland Center
05:57PM 41.4800 -81.8192 146° Southeast 273 314 9,000 -1,500 Descending Cleveland Center
05:57PM 41.4325 -81.7769 146° Southeast 299 344 7,900 -1,500 Descending Cleveland Center
05:58PM 41.3889 -81.7786 182° South 268 308 7,100 -900 Descending Cleveland Center
05:58PM 41.3594 -81.7864 191° South 251 289 7,000 -120 Descending Cleveland Center
05:59PM 41.3278 -81.8192 218° Southwest 247 284 7,000  Level Cleveland Center
06:00PM 41.2961 -81.8767 234° Southwest 180 207 7,000 -420 Level Cleveland Center
06:01PM 41.2683 -81.9258 233° Southwest 177 204 6,300 -1,140 Descending Cleveland Center
06:02PM 41.2364 -81.9831 233° Southwest 186 214 4,900 -1,200 Descending Cleveland Center
06:03PM 41.2483 -82.0358 287° West 171 197 3,900 -960 Descending Cleveland Center
06:04PM 41.2900 -82.0283 North 180 207 3,000 -480 Descending Cleveland Center
06:05PM 41.3217 -81.9933 40° Northeast 158 182 3,000  Level Cleveland Center